createdAt,value
2023-03-13T00:03:28.885Z,10.39
2023-03-13T00:08:32.940Z,11.25
2023-03-13T00:13:36.933Z,10.96
2023-03-13T00:18:40.204Z,11.46
2023-03-13T00:23:43.669Z,11.28
2023-03-13T00:28:47.372Z,10.58
2023-03-13T00:33:53.073Z,10.51
2023-03-13T00:39:00.039Z,10.77
2023-03-13T00:44:03.541Z,10.83
2023-03-13T00:49:07.080Z,10.87
2023-03-13T00:54:10.711Z,10.61
2023-03-13T00:59:15.800Z,10.69
2023-03-13T01:04:22.699Z,10.33
2023-03-13T01:09:26.376Z,10.81
2023-03-13T01:14:29.731Z,10.58
2023-03-13T01:19:33.582Z,10.34
2023-03-13T01:24:36.492Z,10.26
2023-03-13T01:29:40.104Z,10.07
2023-03-13T01:34:43.064Z,9.76
2023-03-13T01:39:46.354Z,9.82
2023-03-13T01:44:58.031Z,9.34
2023-03-13T01:50:02.489Z,8.93
2023-03-13T01:55:38.584Z,9.19
2023-03-13T02:00:43.574Z,8.00
2023-03-13T02:05:49.129Z,8.60
2023-03-13T02:10:59.331Z,8.63
2023-03-13T02:16:03.128Z,8.33
2023-03-13T02:21:16.950Z,8.42
2023-03-13T02:26:19.927Z,7.99
2023-03-13T02:31:22.974Z,7.39
2023-03-13T02:36:26.353Z,7.55
2023-03-13T02:41:30.933Z,7.52
2023-03-13T02:46:53.276Z,7.49
2023-03-13T02:52:15.159Z,7.70
2023-03-13T02:57:19.493Z,6.91
2023-03-13T03:02:23.152Z,7.60
2023-03-13T03:07:28.731Z,6.99
2023-03-13T03:12:32.271Z,6.92
2023-03-13T03:17:38.108Z,6.89
2023-03-13T03:22:41.419Z,6.51
2023-03-13T03:27:44.760Z,6.54
2023-03-13T03:32:48.030Z,7.35
2023-03-13T03:37:51.667Z,7.19
2023-03-13T03:42:55.734Z,7.47
2023-03-13T03:48:00.163Z,7.76
2023-03-13T03:53:04.147Z,6.56
2023-03-13T03:58:07.564Z,7.66
2023-03-13T04:03:29.644Z,7.46
2023-03-13T04:08:33.799Z,7.12
2023-03-13T04:13:36.686Z,7.64
2023-03-13T04:18:39.991Z,7.16
2023-03-13T04:23:43.928Z,6.92
2023-03-13T04:28:48.574Z,7.48
2023-03-13T04:33:55.992Z,7.37
2023-03-13T04:39:26.201Z,6.47
2023-03-13T04:44:47.545Z,7.52
2023-03-13T04:50:09.398Z,7.46
2023-03-13T04:55:32.725Z,7.37
2023-03-13T05:00:58.462Z,6.99
2023-03-13T05:06:10.882Z,7.22
2023-03-13T05:11:56.507Z,7.25
2023-03-13T05:17:22.626Z,7.09
2023-03-13T05:22:45.189Z,7.33
2023-03-13T05:27:56.439Z,7.35
2023-03-13T05:33:22.947Z,7.50
2023-03-13T05:38:43.278Z,7.48
2023-03-13T05:44:05.977Z,7.39
2023-03-13T05:49:32.585Z,7.40
2023-03-13T05:55:12.911Z,6.99
2023-03-13T06:00:36.857Z,7.12
2023-03-13T06:06:02.942Z,7.52
2023-03-13T06:11:24.514Z,7.43
2023-03-13T06:16:34.784Z,7.96
2023-03-13T06:21:53.702Z,8.95
2023-03-13T06:26:58.881Z,9.35
2023-03-13T06:32:01.402Z,9.65
2023-03-13T06:37:04.277Z,9.67
2023-03-13T06:42:07.062Z,9.39
2023-03-13T06:47:10.842Z,9.11
2023-03-13T06:52:19.419Z,8.77
2023-03-13T06:57:24.127Z,8.71
2023-03-13T07:02:26.453Z,10.09
2023-03-13T07:07:32.371Z,10.62
2023-03-13T07:12:35.951Z,11.29
2023-03-13T07:17:38.899Z,11.78
2023-03-13T07:22:43.625Z,11.37
2023-03-13T07:27:53.679Z,11.11
2023-03-13T07:32:56.976Z,10.37
2023-03-13T07:37:59.856Z,10.23
2023-03-13T07:43:04.103Z,10.15
2023-03-13T07:48:08.010Z,9.67
2023-03-13T07:53:15.677Z,10.17
2023-03-13T07:58:20.566Z,9.61
2023-03-13T08:03:25.797Z,9.72
2023-03-13T08:08:30.972Z,9.89
2023-03-13T08:19:02.106Z,9.86
2023-03-13T08:24:11.670Z,9.13
2023-03-13T08:29:25.003Z,9.39
2023-03-13T08:34:38.480Z,9.39
2023-03-13T08:45:14.049Z,9.57
2023-03-13T08:50:37.829Z,10.11
2023-03-13T09:02:59.427Z,10.25
2023-03-13T09:08:08.814Z,9.87
2023-03-13T09:13:14.901Z,9.68
2023-03-13T09:18:33.873Z,10.16
2023-03-13T09:23:39.243Z,10.15
2023-03-13T09:28:42.678Z,10.54
2023-03-13T09:33:50.140Z,10.51
2023-03-13T09:38:55.927Z,10.02
2023-03-13T09:44:27.243Z,10.50
2023-03-13T09:49:47.065Z,10.54
2023-03-13T09:55:10.798Z,10.61
2023-03-13T10:00:22.673Z,10.79
2023-03-13T10:05:31.015Z,10.58
2023-03-13T10:10:46.294Z,10.83
2023-03-13T10:15:58.303Z,10.93
2023-03-13T10:21:23.533Z,10.85
2023-03-13T10:26:30.936Z,10.44
2023-03-13T10:31:39.747Z,10.66
2023-03-13T10:37:00.769Z,10.74
2023-03-13T10:42:20.243Z,10.83
2023-03-13T10:47:25.208Z,10.64
2023-03-13T10:52:49.021Z,10.74
2023-03-13T10:58:24.912Z,10.64
2023-03-13T11:03:34.705Z,10.73
2023-03-13T11:08:37.911Z,10.71
2023-03-13T11:13:46.170Z,10.56
2023-03-13T11:19:01.259Z,10.77
2023-03-13T11:24:14.360Z,10.56
2023-03-13T11:29:32.424Z,10.65
2023-03-13T11:34:47.420Z,10.67
2023-03-13T11:40:01.934Z,10.52
2023-03-13T11:45:18.059Z,10.72
2023-03-13T11:51:13.168Z,10.70
2023-03-13T11:56:17.859Z,10.59
2023-03-13T12:01:26.848Z,10.38
2023-03-13T12:06:39.323Z,10.31
2023-03-13T12:12:04.254Z,10.24
2023-03-13T12:17:14.523Z,10.49
2023-03-13T12:22:29.061Z,10.22
2023-03-13T12:27:41.765Z,10.75
2023-03-13T12:33:13.045Z,10.68
2023-03-13T12:38:29.360Z,10.82
2023-03-13T12:43:34.922Z,10.61
2023-03-13T12:49:03.494Z,10.49
2023-03-13T12:54:18.561Z,10.53
2023-03-13T12:59:48.268Z,10.19
2023-03-13T13:04:56.218Z,10.14
2023-03-13T13:10:19.888Z,10.06
2023-03-13T13:15:31.222Z,10.02
2023-03-13T13:20:37.281Z,10.02
2023-03-13T13:25:40.322Z,9.80
2023-03-13T13:30:45.838Z,9.43
2023-03-13T13:36:22.094Z,9.77
2023-03-13T13:41:34.405Z,9.56
2023-03-13T13:46:37.155Z,9.41
2023-03-13T13:51:42.034Z,9.39
2023-03-13T13:56:53.099Z,9.24
2023-03-13T14:02:18.819Z,9.47
2023-03-13T14:07:31.111Z,9.38
2023-03-13T14:12:40.172Z,9.14
2023-03-13T14:17:59.248Z,9.22
2023-03-13T14:23:12.772Z,9.11
2023-03-13T14:28:17.228Z,9.01
2023-03-13T14:33:20.994Z,8.96
2023-03-13T14:38:30.485Z,8.91
2023-03-13T14:43:41.612Z,8.96
2023-03-13T14:48:44.670Z,8.82
2023-03-13T14:54:01.652Z,8.51
2023-03-13T14:59:26.879Z,8.51
2023-03-13T15:04:49.245Z,8.65
2023-03-13T15:09:53.598Z,8.44
2023-03-13T15:14:57.259Z,8.41
2023-03-13T15:20:00.163Z,8.35
2023-03-13T15:25:06.336Z,8.21
2023-03-13T15:30:17.049Z,8.02
2023-03-13T15:35:29.663Z,8.07
2023-03-13T15:40:32.161Z,7.90
2023-03-13T15:45:37.564Z,8.07
2023-03-13T15:50:40.071Z,7.96
2023-03-13T15:55:43.718Z,7.86
2023-03-13T16:00:49.215Z,7.81
2023-03-13T16:05:54.798Z,7.63
2023-03-13T16:10:57.318Z,7.90
2023-03-13T16:16:00.314Z,7.81
2023-03-13T16:21:02.944Z,7.87
2023-03-13T16:26:12.760Z,7.71
2023-03-13T16:31:22.412Z,7.44
2023-03-13T16:36:31.522Z,7.52
2023-03-13T16:41:34.107Z,7.40
2023-03-13T16:46:39.464Z,7.24
2023-03-13T16:51:42.702Z,7.03
2023-03-13T16:56:45.353Z,7.01
2023-03-13T17:01:47.759Z,7.04
2023-03-13T17:06:51.748Z,6.73
2023-03-13T17:11:54.292Z,6.77
2023-03-13T17:16:58.152Z,6.73
2023-03-13T17:22:02.173Z,6.70
2023-03-13T17:27:05.029Z,6.71
2023-03-13T17:32:09.364Z,6.71
2023-03-13T17:37:16.523Z,6.62
2023-03-13T17:42:19.629Z,6.28
2023-03-13T17:47:24.383Z,6.31
2023-03-13T17:52:26.723Z,6.44
2023-03-13T17:57:29.280Z,6.21
2023-03-13T18:02:31.846Z,6.27
2023-03-13T18:07:35.777Z,6.17
2023-03-13T18:12:38.164Z,6.15
2023-03-13T18:17:41.100Z,6.13
2023-03-13T18:22:43.803Z,5.96
2023-03-13T18:27:46.470Z,5.79
2023-03-13T18:32:49.403Z,5.83
2023-03-13T18:37:51.942Z,5.93
2023-03-13T18:42:55.032Z,5.74
2023-03-13T18:47:57.451Z,5.70
2023-03-13T18:53:00.754Z,5.75
2023-03-13T18:58:03.185Z,5.73
2023-03-13T19:03:05.580Z,5.65
2023-03-13T19:08:09.984Z,5.64
2023-03-13T19:13:12.339Z,5.28
2023-03-13T19:18:14.774Z,5.41
2023-03-13T19:23:17.104Z,5.38
2023-03-13T19:28:20.643Z,5.34
2023-03-13T19:33:23.669Z,5.23
2023-03-13T19:38:26.339Z,5.09
2023-03-13T19:43:29.172Z,4.79
2023-03-13T19:48:31.878Z,5.02
2023-03-13T19:53:35.434Z,4.97
2023-03-13T19:58:38.305Z,4.86
2023-03-13T20:03:41.284Z,4.91
2023-03-13T20:08:45.951Z,4.91
2023-03-13T20:13:48.338Z,4.75
2023-03-13T20:18:52.661Z,4.69
2023-03-13T20:23:55.660Z,4.54
2023-03-13T20:28:58.524Z,4.53
2023-03-13T20:34:01.718Z,4.47
2023-03-13T20:39:05.792Z,4.37
2023-03-13T20:44:09.889Z,4.53
2023-03-13T20:49:12.927Z,4.50
2023-03-13T20:54:16.453Z,4.29
2023-03-13T20:59:18.827Z,4.17
2023-03-13T21:04:22.007Z,4.17
2023-03-13T21:09:25.815Z,3.95
2023-03-13T21:14:28.385Z,4.22
2023-03-13T21:19:30.825Z,4.11
2023-03-13T21:24:33.214Z,4.21
2023-03-13T21:29:36.156Z,4.17
2023-03-13T21:34:38.978Z,3.99
2023-03-13T21:39:42.857Z,3.98
2023-03-13T21:44:46.478Z,4.09
2023-03-13T21:49:48.838Z,3.96
2023-03-13T21:54:51.919Z,3.80
2023-03-13T21:59:54.317Z,4.07
2023-03-13T22:04:57.289Z,3.87
2023-03-13T22:10:01.322Z,4.06
2023-03-13T22:15:06.317Z,4.04
2023-03-13T22:20:10.259Z,3.86
2023-03-13T22:25:13.217Z,3.77
2023-03-13T22:30:16.866Z,3.93
2023-03-13T22:35:19.335Z,3.78
2023-03-13T22:40:21.913Z,3.95
2023-03-13T22:45:25.590Z,3.68
2023-03-13T22:50:28.246Z,3.63
2023-03-13T22:55:33.216Z,3.54
2023-03-13T23:00:36.167Z,3.64
2023-03-13T23:05:43.232Z,3.48
2023-03-13T23:10:47.528Z,3.59
2023-03-13T23:15:58.203Z,3.75
2023-03-13T23:21:06.087Z,3.64
2023-03-13T23:26:11.853Z,3.45
2023-03-13T23:31:22.402Z,3.60
2023-03-13T23:36:25.898Z,3.53
2023-03-13T23:41:29.228Z,3.57
2023-03-13T23:46:31.674Z,3.67
2023-03-13T23:51:34.315Z,3.50
2023-03-13T23:56:37.322Z,3.59
